Time;durP1;ratioP1;P1;durP2;ratioP2;P2;SDS_P1;SDS_P2;PMS_P1;PMS_P2;Temp;Humidity;BMP_temperature;BMP_pressure;BME280_temperature;BME280_humidity;BME280_pressure;Samples;Min_cycle;Max_cycle;Signal;HPM_P1;HPM_P2
2022/12/06 00:00:37;;;;;;;64.10;38.90;;;;;;;4.30;98.31;98698.50;419823;1301;111505;-39
2022/12/06 00:10:45;;;;;;;96.10;48.90;;;;;;;4.36;98.23;98682.16;419848;1301;109280;-40
2022/12/06 00:20:53;;;;;;;94.30;48.00;;;;;;;4.26;98.16;98671.33;419880;1301;99222;-40
2022/12/06 00:30:58;;;;;;;80.60;44.50;;;;;;;4.17;97.81;98660.00;419867;1301;107920;-39
2022/12/06 00:41:05;;;;;;;66.70;39.20;;;;;;;4.24;97.93;98660.86;420008;1295;99255;-39
2022/12/06 00:51:13;;;;;;;66.40;37.40;;;;;;;4.36;98.08;98658.92;420035;1302;111489;-39
2022/12/06 01:01:22;;;;;;;90.10;44.90;;;;;;;4.35;97.99;98656.63;420083;1301;107091;-39
2022/12/06 01:11:31;;;;;;;92.70;45.60;;;;;;;4.19;97.85;98653.78;420066;1301;99342;-39
2022/12/06 01:21:38;;;;;;;69.80;40.60;;;;;;;4.21;98.03;98642.73;419993;1294;106611;-40
2022/12/06 01:31:45;;;;;;;71.90;38.50;;;;;;;4.22;97.89;98641.04;419947;1295;99250;-40
2022/12/06 01:41:52;;;;;;;67.40;38.30;;;;;;;4.29;98.05;98635.66;419951;1294;111759;-39
2022/12/06 01:51:59;;;;;;;106.10;50.80;;;;;;;4.43;98.19;98622.48;420022;1302;108557;-40
2022/12/06 02:02:07;;;;;;;107.50;55.00;;;;;;;4.33;98.10;98607.72;419947;1293;99287;-39
2022/12/06 02:12:16;;;;;;;83.90;42.00;;;;;;;4.24;97.90;98594.35;419835;1301;106787;-39
2022/12/06 02:22:28;;;;;;;74.40;38.80;;;;;;;4.34;98.01;98580.10;420813;1281;99255;-39
2022/12/06 02:32:35;;;;;;;64.90;37.80;;;;;;;4.52;98.58;98571.07;419899;1294;110162;-38
2022/12/06 02:42:46;;;;;;;94.80;47.70;;;;;;;4.42;97.88;98555.38;419796;1301;108074;-40
2022/12/06 02:52:58;;;;;;;91.90;45.70;;;;;;;4.16;97.80;98540.81;419944;1293;99345;-40
2022/12/06 03:03:12;;;;;;;72.50;41.50;;;;;;;4.06;97.74;98527.11;419938;1297;108407;-39
2022/12/06 03:13:25;;;;;;;75.70;40.90;;;;;;;4.10;97.92;98523.40;419966;1301;99226;-40
2022/12/06 03:23:32;;;;;;;74.80;41.90;;;;;;;4.23;98.14;98514.61;419774;1295;111559;-38
2022/12/06 03:33:45;;;;;;;63.90;37.80;;;;;;;4.26;97.96;98495.52;419962;1301;109350;-39
2022/12/06 03:43:52;;;;;;;81.70;42.60;;;;;;;4.29;98.25;98486.09;420000;1293;99245;-40
2022/12/06 03:54:03;;;;;;;59.30;33.10;;;;;;;4.05;97.81;98464.30;419973;1302;108176;-39
2022/12/06 04:04:11;;;;;;;54.20;31.80;;;;;;;3.89;97.57;98454.70;419899;1301;99247;-38
2022/12/06 04:14:18;;;;;;;45.30;27.50;;;;;;;3.88;97.78;98438.80;419926;1294;112262;-40
2022/12/06 04:24:24;;;;;;;48.70;30.00;;;;;;;3.87;97.83;98434.38;419958;1294;108305;-39
2022/12/06 04:44:56;;;;;;;44.90;26.20;;;;;;;3.88;97.89;98414.70;419821;1301;107264;-39
2022/12/06 04:55:04;;;;;;;56.90;28.60;;;;;;;3.93;98.02;98417.73;419794;1301;98951;-38
2022/12/06 05:05:11;;;;;;;71.10;35.30;;;;;;;3.86;98.07;98417.07;419808;1301;110428;-39
2022/12/06 05:15:18;;;;;;;56.30;30.60;;;;;;;3.77;97.96;98407.70;419902;1301;106633;-40
2022/12/06 05:25:25;;;;;;;54.20;30.30;;;;;;;3.78;97.88;98394.91;419943;1301;99227;-40
2022/12/06 05:35:32;;;;;;;47.90;28.50;;;;;;;3.81;97.96;98380.91;419919;1301;109263;-40
2022/12/06 05:55:46;;;;;;;44.60;25.80;;;;;;;3.82;98.08;98358.33;419823;1302;111427;-40
2022/12/06 06:05:56;;;;;;;45.80;25.70;;;;;;;3.95;98.38;98366.67;419803;1293;108394;-39
2022/12/06 06:16:02;;;;;;;61.30;34.20;;;;;;;3.92;98.17;98378.42;419892;1301;99249;-39
2022/12/06 06:26:07;;;;;;;67.60;32.00;;;;;;;3.83;98.20;98388.31;420045;1302;109916;-39
2022/12/06 06:36:14;;;;;;;52.20;34.20;;;;;;;3.77;98.06;98405.25;419960;1301;99230;-39
2022/12/06 06:46:24;;;;;;;39.20;28.40;;;;;;;3.74;98.11;98403.45;419941;1302;112604;-39
2022/12/06 06:56:32;;;;;;;40.90;24.40;;;;;;;3.76;98.23;98395.65;420025;1300;106680;-38
2022/12/06 07:06:39;;;;;;;41.10;26.30;;;;;;;3.78;98.19;98392.45;419965;1301;99352;-39
2022/12/06 07:16:46;;;;;;;41.60;26.30;;;;;;;3.85;98.36;98376.05;419790;1303;108606;-39
2022/12/06 07:37:01;;;;;;;45.70;29.00;;;;;;;4.31;98.84;98360.25;419793;1297;112348;-38
2022/12/06 07:47:08;;;;;;;56.50;33.50;;;;;;;4.34;98.63;98355.34;419925;1302;107112;-39
2022/12/06 07:57:15;;;;;;;58.20;33.50;;;;;;;4.22;98.43;98340.55;419996;1298;98726;-38
2022/12/06 08:17:29;;;;;;;62.80;37.80;;;;;;;4.23;98.35;98333.19;419891;1293;107599;-39
2022/12/06 08:27:37;;;;;;;53.00;32.00;;;;;;;4.29;98.34;98331.14;419783;1300;98834;-39
2022/12/06 08:37:44;;;;;;;58.80;37.50;;;;;;;4.37;98.36;98323.73;419889;1302;109190;-40
2022/12/06 08:57:59;;;;;;;89.70;46.10;;;;;;;4.25;98.30;98306.42;419967;1302;111653;-39
2022/12/06 09:08:08;;;;;;;73.00;41.20;;;;;;;4.13;97.91;98299.02;419858;1302;107029;-40
2022/12/06 09:18:19;;;;;;;71.20;39.90;;;;;;;4.14;98.04;98284.81;419806;1302;98859;-38
2022/12/06 09:28:29;;;;;;;65.70;37.40;;;;;;;4.25;98.23;98285.57;419993;1300;108259;-39
2022/12/06 09:38:40;;;;;;;64.60;37.70;;;;;;;4.46;98.50;98277.67;419836;1302;98873;-38
2022/12/06 09:49:27;;;;;;;96.80;52.80;;;;;;;4.53;98.46;98267.04;420019;1302;111566;-38
2022/12/06 09:59:39;;;;;;;66.70;38.30;;;;;;;4.46;98.32;98254.80;419632;1302;109375;-40
2022/12/06 10:09:44;;;;;;;55.50;34.90;;;;;;;4.44;98.11;98237.04;420019;1301;98411;-39
2022/12/06 10:19:53;;;;;;;57.20;32.60;;;;;;;4.41;97.82;98230.98;419943;1301;107497;-40
2022/12/06 10:30:05;;;;;;;56.80;33.40;;;;;;;4.34;97.77;98219.60;419883;1301;99245;-40
2022/12/06 10:40:16;;;;;;;61.00;31.10;;;;;;;4.38;98.07;98210.82;419923;1288;111806;-40
2022/12/06 10:50:22;;;;;;;45.80;26.10;;;;;;;4.43;97.99;98196.40;419806;1302;107466;-39
2022/12/06 11:00:34;;;;;;;45.50;28.20;;;;;;;4.41;98.06;98188.59;419896;1291;99153;-39
2022/12/06 11:10:43;;;;;;;44.40;26.60;;;;;;;4.47;98.24;98190.07;419455;1303;392096;-39
2022/12/06 11:20:52;;;;;;;48.70;28.90;;;;;;;4.44;98.26;98193.41;419870;1302;98518;-39
2022/12/06 11:31:05;;;;;;;56.00;35.90;;;;;;;4.36;98.28;98187.83;420066;1295;111802;-39
2022/12/06 11:41:10;;;;;;;47.80;30.10;;;;;;;4.32;98.11;98185.77;419910;1295;108405;-39
2022/12/06 11:51:20;;;;;;;36.90;27.60;;;;;;;4.40;98.14;98173.65;419760;1301;98548;-40
2022/12/06 12:01:40;;;;;;;31.60;20.80;;;;;;;4.51;98.17;98163.91;419905;1301;108909;-38
2022/12/06 12:11:57;;;;;;;27.30;20.10;;;;;;;4.47;98.02;98159.00;419840;1302;99244;-39
2022/12/06 12:22:19;;;;;;;56.80;29.30;;;;;;;4.41;98.13;98153.55;419952;1302;110448;-39
2022/12/06 12:32:27;;;;;;;40.10;28.00;;;;;;;4.25;98.22;98147.79;419778;1301;108040;-38
2022/12/06 12:42:38;;;;;;;22.00;15.70;;;;;;;4.25;98.24;98147.04;419968;1301;99249;-39
2022/12/06 12:52:46;;;;;;;24.50;15.50;;;;;;;4.24;97.85;98138.81;419867;1301;109229;-38
2022/12/06 13:02:58;;;;;;;29.90;19.30;;;;;;;4.25;98.04;98131.02;419966;1294;99227;-38
2022/12/06 13:13:05;;;;;;;30.80;20.60;;;;;;;4.35;98.19;98129.20;419974;1301;111040;-40
2022/12/06 13:23:13;;;;;;;19.60;14.20;;;;;;;4.41;98.14;98119.60;419909;1301;108115;-40
2022/12/06 13:33:24;;;;;;;22.30;17.50;;;;;;;4.24;97.84;98115.02;420002;1301;99098;-39
2022/12/06 13:43:57;;;;;;;35.80;22.40;;;;;;;4.04;97.86;98108.81;419974;1301;110039;-38
2022/12/06 13:54:35;;;;;;;21.90;17.40;;;;;;;3.98;97.84;98111.17;420034;1294;99256;-40
2022/12/06 14:04:43;;;;;;;21.80;17.90;;;;;;;3.95;97.68;98113.14;419978;1297;111869;-39
2022/12/06 14:35:05;;;;;;;36.80;24.90;;;;;;;3.84;97.90;98114.71;419962;1294;108559;-39
2022/12/06 14:45:13;;;;;;;23.20;13.70;;;;;;;3.61;97.59;98117.30;419940;1295;99192;-39
2022/12/06 14:55:19;;;;;;;20.10;14.50;;;;;;;3.28;97.10;98119.23;419976;1302;110256;-38
2022/12/06 15:05:32;;;;;;;26.40;15.80;;;;;;;3.13;97.11;98118.40;419812;1287;107349;-42
2022/12/06 15:15:38;;;;;;;27.80;16.50;;;;;;;3.01;97.14;98116.54;419940;1293;98062;-39
2022/12/06 15:25:45;;;;;;;34.40;23.80;;;;;;;2.85;97.15;98114.96;419897;1300;106116;-39
2022/12/06 15:35:54;;;;;;;46.70;27.10;;;;;;;2.59;97.20;98119.83;419973;1294;97977;-39
2022/12/06 15:46:03;;;;;;;27.40;20.10;;;;;;;2.42;97.03;98122.50;419956;1294;110633;-39
2022/12/06 16:06:20;;;;;;;27.30;19.50;;;;;;;2.42;97.18;98113.23;419971;1301;99233;-41
2022/12/06 16:16:29;;;;;;;22.00;13.80;;;;;;;2.50;97.20;98105.15;419925;1294;106710;-39
2022/12/06 16:26:39;;;;;;;29.60;18.30;;;;;;;2.42;97.18;98109.86;419896;1286;99221;-39
2022/12/06 16:36:57;;;;;;;23.90;15.90;;;;;;;2.30;97.23;98115.89;420031;1299;112213;-38
2022/12/06 16:47:09;;;;;;;38.80;23.80;;;;;;;2.11;97.14;98122.45;419958;1294;107896;-38
2022/12/06 16:57:18;;;;;;;35.70;23.40;;;;;;;2.00;97.01;98121.39;420083;1294;98843;-39
2022/12/06 17:07:26;;;;;;;28.30;20.00;;;;;;;2.02;96.98;98128.66;419970;1294;110787;-42
2022/12/06 17:17:34;;;;;;;22.80;15.50;;;;;;;1.98;96.88;98133.41;419923;1294;107363;-39
2022/12/06 17:27:41;;;;;;;18.80;12.80;;;;;;;2.04;97.00;98129.80;419801;1301;98034;-39
2022/12/06 17:37:51;;;;;;;32.00;19.60;;;;;;;1.97;97.02;98132.08;419986;1301;107717;-39
2022/12/06 17:47:59;;;;;;;40.60;24.40;;;;;;;1.78;96.85;98132.57;419970;1296;98837;-38
2022/12/06 18:08:15;;;;;;;44.30;19.80;;;;;;;1.44;96.81;98122.67;419446;1304;107871;-40
2022/12/06 18:18:22;;;;;;;43.30;21.30;;;;;;;1.47;96.71;98116.50;419445;1297;98724;-39
2022/12/06 18:28:30;;;;;;;37.90;19.40;;;;;;;1.49;96.70;98114.08;419480;1294;108535;-39
2022/12/06 18:38:38;;;;;;;25.20;15.80;;;;;;;1.53;96.77;98110.59;419568;1287;99255;-39
2022/12/06 18:48:48;;;;;;;44.60;22.60;;;;;;;1.53;96.99;98110.42;419554;1304;111121;-38
2022/12/06 18:58:57;;;;;;;44.10;24.00;;;;;;;1.39;96.80;98107.14;419602;1297;109187;-40
2022/12/06 19:19:13;;;;;;;19.00;15.00;;;;;;;1.28;96.72;98107.91;419501;1297;110839;-39
2022/12/06 19:29:31;;;;;;;18.20;15.00;;;;;;;1.27;96.60;98118.08;419371;1304;108434;-38
2022/12/06 19:39:39;;;;;;;13.00;8.80;;;;;;;1.32;96.62;98119.41;419317;1297;98533;-40
2022/12/06 19:49:45;;;;;;;13.20;9.70;;;;;;;1.42;96.78;98116.45;419322;1304;107590;-38
2022/12/06 19:59:54;;;;;;;19.90;11.50;;;;;;;1.35;96.77;98106.66;419363;1301;99173;-38
2022/12/06 20:10:04;;;;;;;16.70;11.10;;;;;;;1.24;96.90;98103.17;419330;1304;111643;-39
2022/12/06 20:20:09;;;;;;;22.20;12.80;;;;;;;1.09;96.76;98095.23;419354;1295;107553;-39
2022/12/06 20:30:16;;;;;;;16.90;10.80;;;;;;;1.07;96.88;98091.99;419225;1297;99256;-39
2022/12/06 20:40:24;;;;;;;16.90;12.10;;;;;;;1.10;96.54;98087.65;419302;1295;109352;-38
2022/12/06 20:50:38;;;;;;;17.00;10.90;;;;;;;1.12;96.50;98080.92;419347;1294;99300;-39
2022/12/06 21:10:52;;;;;;;32.90;15.90;;;;;;;1.12;96.64;98066.34;420340;1293;108722;-39
2022/12/06 21:31:39;;;;;;;11.70;7.60;;;;;;;0.90;96.52;98076.48;419336;1304;110732;-39
2022/12/06 21:41:47;;;;;;;8.40;6.00;;;;;;;0.88;96.46;98078.55;419344;1288;108229;-39
2022/12/06 21:51:55;;;;;;;7.90;6.00;;;;;;;1.00;96.73;98080.48;419333;1295;98845;-39
2022/12/06 22:02:12;;;;;;;18.60;8.00;;;;;;;1.07;96.65;98082.05;419231;1304;107896;-40
2022/12/06 22:12:19;;;;;;;14.70;8.40;;;;;;;1.09;96.78;98081.16;419377;1304;99225;-40
2022/12/06 22:22:26;;;;;;;12.80;7.90;;;;;;;1.01;96.82;98075.02;419259;1303;110380;-38
2022/12/06 22:32:34;;;;;;;23.10;11.00;;;;;;;0.90;96.78;98081.52;419269;1295;108400;-40
2022/12/06 22:42:41;;;;;;;15.30;11.50;;;;;;;0.91;96.74;98075.69;419309;1297;99197;-39
2022/12/06 22:52:49;;;;;;;17.40;10.20;;;;;;;0.97;96.66;98067.13;419234;1295;111133;-39
2022/12/06 23:02:55;;;;;;;39.00;17.70;;;;;;;1.06;96.80;98054.73;419195;1303;107905;-39
2022/12/06 23:13:02;;;;;;;17.50;9.70;;;;;;;1.10;96.80;98049.45;418980;1303;457474;-38
2022/12/06 23:23:09;;;;;;;20.50;12.70;;;;;;;1.06;96.86;98048.20;419285;1301;109361;-40
2022/12/06 23:33:17;;;;;;;24.00;14.20;;;;;;;0.93;96.89;98044.57;419212;1304;99068;-38
2022/12/06 23:43:29;;;;;;;17.50;10.50;;;;;;;0.83;96.86;98037.96;419132;1304;111785;-39
2022/12/06 23:53:37;;;;;;;15.70;10.20;;;;;;;0.88;96.93;98035.02;419134;1304;108454;-39
